sensor_id;sensor_type;location;lat;lon;timestamp;P1;durP1;ratioP1;P2;durP2;ratioP2
8474;SDS011;4274;52.012;8.448;2024-02-14T00:00:53;42.00;;;5.40;;
8474;SDS011;4274;52.012;8.448;2024-02-14T00:03:18;43.43;;;5.57;;
8474;SDS011;4274;52.012;8.448;2024-02-14T00:05:45;44.93;;;4.63;;
8474;SDS011;4274;52.012;8.448;2024-02-14T00:08:11;45.83;;;6.20;;
8474;SDS011;4274;52.012;8.448;2024-02-14T00:10:38;44.70;;;5.67;;
8474;SDS011;4274;52.012;8.448;2024-02-14T00:13:04;45.10;;;5.10;;
8474;SDS011;4274;52.012;8.448;2024-02-14T00:15:30;43.43;;;5.83;;
8474;SDS011;4274;52.012;8.448;2024-02-14T00:17:56;41.47;;;4.80;;
8474;SDS011;4274;52.012;8.448;2024-02-14T00:20:21;43.90;;;5.73;;
8474;SDS011;4274;52.012;8.448;2024-02-14T00:22:47;44.07;;;6.00;;
8474;SDS011;4274;52.012;8.448;2024-02-14T00:25:13;43.37;;;5.33;;
8474;SDS011;4274;52.012;8.448;2024-02-14T00:27:38;43.40;;;5.50;;
8474;SDS011;4274;52.012;8.448;2024-02-14T00:30:05;43.23;;;4.67;;
8474;SDS011;4274;52.012;8.448;2024-02-14T00:32:31;45.60;;;4.90;;
8474;SDS011;4274;52.012;8.448;2024-02-14T00:34:58;41.57;;;4.63;;
8474;SDS011;4274;52.012;8.448;2024-02-14T00:37:24;41.17;;;4.93;;
8474;SDS011;4274;52.012;8.448;2024-02-14T00:39:49;45.67;;;5.87;;
8474;SDS011;4274;52.012;8.448;2024-02-14T00:42:16;43.00;;;5.50;;
8474;SDS011;4274;52.012;8.448;2024-02-14T00:44:42;40.60;;;4.60;;
8474;SDS011;4274;52.012;8.448;2024-02-14T00:47:07;45.77;;;4.40;;
8474;SDS011;4274;52.012;8.448;2024-02-14T00:49:36;46.60;;;5.10;;
8474;SDS011;4274;52.012;8.448;2024-02-14T00:52:02;42.63;;;5.00;;
8474;SDS011;4274;52.012;8.448;2024-02-14T00:54:28;43.40;;;4.57;;
8474;SDS011;4274;52.012;8.448;2024-02-14T00:56:54;43.47;;;4.57;;
8474;SDS011;4274;52.012;8.448;2024-02-14T00:59:19;46.50;;;5.20;;
8474;SDS011;4274;52.012;8.448;2024-02-14T01:01:45;45.93;;;4.97;;
8474;SDS011;4274;52.012;8.448;2024-02-14T01:04:10;42.67;;;4.80;;
8474;SDS011;4274;52.012;8.448;2024-02-14T01:06:36;44.37;;;4.60;;
8474;SDS011;4274;52.012;8.448;2024-02-14T01:09:02;40.27;;;4.33;;
8474;SDS011;4274;52.012;8.448;2024-02-14T01:11:28;40.17;;;4.17;;
8474;SDS011;4274;52.012;8.448;2024-02-14T01:13:54;43.17;;;4.40;;
8474;SDS011;4274;52.012;8.448;2024-02-14T01:16:19;45.43;;;5.43;;
8474;SDS011;4274;52.012;8.448;2024-02-14T01:18:45;44.17;;;4.43;;
8474;SDS011;4274;52.012;8.448;2024-02-14T01:21:10;55.23;;;4.80;;
8474;SDS011;4274;52.012;8.448;2024-02-14T01:23:37;41.67;;;4.67;;
8474;SDS011;4274;52.012;8.448;2024-02-14T01:26:03;41.77;;;4.40;;
8474;SDS011;4274;52.012;8.448;2024-02-14T01:28:28;40.70;;;4.00;;
8474;SDS011;4274;52.012;8.448;2024-02-14T01:30:54;42.90;;;4.30;;
8474;SDS011;4274;52.012;8.448;2024-02-14T01:33:21;43.47;;;4.93;;
8474;SDS011;4274;52.012;8.448;2024-02-14T01:35:47;45.13;;;4.57;;
8474;SDS011;4274;52.012;8.448;2024-02-14T01:38:13;41.50;;;4.20;;
8474;SDS011;4274;52.012;8.448;2024-02-14T01:40:42;44.30;;;5.90;;
8474;SDS011;4274;52.012;8.448;2024-02-14T01:43:09;42.77;;;4.80;;
8474;SDS011;4274;52.012;8.448;2024-02-14T01:45:35;42.60;;;5.87;;
8474;SDS011;4274;52.012;8.448;2024-02-14T01:48:00;44.70;;;4.80;;
8474;SDS011;4274;52.012;8.448;2024-02-14T01:50:27;41.70;;;4.30;;
8474;SDS011;4274;52.012;8.448;2024-02-14T01:52:55;41.70;;;4.10;;
8474;SDS011;4274;52.012;8.448;2024-02-14T01:55:21;43.40;;;4.43;;
8474;SDS011;4274;52.012;8.448;2024-02-14T01:57:47;44.10;;;5.30;;
8474;SDS011;4274;52.012;8.448;2024-02-14T02:00:13;45.57;;;5.10;;
8474;SDS011;4274;52.012;8.448;2024-02-14T02:02:43;46.13;;;5.07;;
8474;SDS011;4274;52.012;8.448;2024-02-14T02:05:09;44.40;;;4.43;;
8474;SDS011;4274;52.012;8.448;2024-02-14T02:07:34;43.13;;;4.70;;
8474;SDS011;4274;52.012;8.448;2024-02-14T02:10:04;41.77;;;4.77;;
8474;SDS011;4274;52.012;8.448;2024-02-14T02:12:30;43.53;;;4.80;;
8474;SDS011;4274;52.012;8.448;2024-02-14T02:14:56;45.50;;;4.93;;
8474;SDS011;4274;52.012;8.448;2024-02-14T02:17:22;44.40;;;4.43;;
8474;SDS011;4274;52.012;8.448;2024-02-14T02:19:47;42.63;;;4.50;;
8474;SDS011;4274;52.012;8.448;2024-02-14T02:22:13;41.57;;;5.03;;
8474;SDS011;4274;52.012;8.448;2024-02-14T02:24:39;41.83;;;5.00;;
8474;SDS011;4274;52.012;8.448;2024-02-14T02:27:04;46.63;;;4.80;;
8474;SDS011;4274;52.012;8.448;2024-02-14T02:29:30;41.97;;;4.93;;
8474;SDS011;4274;52.012;8.448;2024-02-14T02:31:57;43.47;;;5.30;;
8474;SDS011;4274;52.012;8.448;2024-02-14T02:34:23;42.30;;;4.67;;
8474;SDS011;4274;52.012;8.448;2024-02-14T02:36:48;41.73;;;4.80;;
8474;SDS011;4274;52.012;8.448;2024-02-14T02:39:16;41.40;;;4.97;;
8474;SDS011;4274;52.012;8.448;2024-02-14T02:41:41;40.33;;;4.50;;
8474;SDS011;4274;52.012;8.448;2024-02-14T02:44:07;45.70;;;5.90;;
8474;SDS011;4274;52.012;8.448;2024-02-14T02:46:33;43.50;;;4.70;;
8474;SDS011;4274;52.012;8.448;2024-02-14T02:48:58;45.43;;;5.00;;
8474;SDS011;4274;52.012;8.448;2024-02-14T02:51:24;43.73;;;5.17;;
8474;SDS011;4274;52.012;8.448;2024-02-14T02:53:50;42.23;;;4.90;;
8474;SDS011;4274;52.012;8.448;2024-02-14T02:56:19;44.40;;;5.17;;
8474;SDS011;4274;52.012;8.448;2024-02-14T02:58:45;44.07;;;5.23;;
8474;SDS011;4274;52.012;8.448;2024-02-14T03:01:13;43.20;;;5.57;;
8474;SDS011;4274;52.012;8.448;2024-02-14T03:03:39;43.13;;;5.07;;
8474;SDS011;4274;52.012;8.448;2024-02-14T03:06:06;43.73;;;5.20;;
8474;SDS011;4274;52.012;8.448;2024-02-14T03:08:32;45.73;;;4.50;;
8474;SDS011;4274;52.012;8.448;2024-02-14T03:11:03;42.97;;;4.80;;
8474;SDS011;4274;52.012;8.448;2024-02-14T03:13:30;42.70;;;4.90;;
8474;SDS011;4274;52.012;8.448;2024-02-14T03:15:55;44.50;;;4.97;;
8474;SDS011;4274;52.012;8.448;2024-02-14T03:18:23;45.50;;;5.23;;
8474;SDS011;4274;52.012;8.448;2024-02-14T03:20:49;42.87;;;4.70;;
8474;SDS011;4274;52.012;8.448;2024-02-14T03:23:18;42.07;;;4.93;;
8474;SDS011;4274;52.012;8.448;2024-02-14T03:25:44;44.30;;;5.53;;
8474;SDS011;4274;52.012;8.448;2024-02-14T03:28:10;48.43;;;5.07;;
8474;SDS011;4274;52.012;8.448;2024-02-14T03:30:38;43.67;;;4.97;;
8474;SDS011;4274;52.012;8.448;2024-02-14T03:33:04;44.43;;;5.07;;
8474;SDS011;4274;52.012;8.448;2024-02-14T03:35:30;41.37;;;4.00;;
8474;SDS011;4274;52.012;8.448;2024-02-14T03:37:55;42.43;;;4.10;;
8474;SDS011;4274;52.012;8.448;2024-02-14T03:40:21;39.10;;;3.23;;
8474;SDS011;4274;52.012;8.448;2024-02-14T03:42:47;40.83;;;3.70;;
8474;SDS011;4274;52.012;8.448;2024-02-14T03:45:13;40.33;;;3.53;;
8474;SDS011;4274;52.012;8.448;2024-02-14T03:47:38;39.13;;;3.37;;
8474;SDS011;4274;52.012;8.448;2024-02-14T03:50:05;41.80;;;3.33;;
8474;SDS011;4274;52.012;8.448;2024-02-14T03:52:32;40.60;;;3.37;;
8474;SDS011;4274;52.012;8.448;2024-02-14T03:54:58;44.43;;;3.60;;
8474;SDS011;4274;52.012;8.448;2024-02-14T03:57:24;39.57;;;3.47;;
8474;SDS011;4274;52.012;8.448;2024-02-14T03:59:53;39.97;;;3.67;;
8474;SDS011;4274;52.012;8.448;2024-02-14T04:02:22;43.23;;;3.70;;
8474;SDS011;4274;52.012;8.448;2024-02-14T04:04:53;39.00;;;3.13;;
8474;SDS011;4274;52.012;8.448;2024-02-14T04:07:18;47.43;;;3.33;;
8474;SDS011;4274;52.012;8.448;2024-02-14T04:09:44;44.27;;;3.20;;
8474;SDS011;4274;52.012;8.448;2024-02-14T04:12:10;46.80;;;3.87;;
8474;SDS011;4274;52.012;8.448;2024-02-14T04:14:36;43.43;;;3.70;;
8474;SDS011;4274;52.012;8.448;2024-02-14T04:17:02;42.20;;;3.57;;
8474;SDS011;4274;52.012;8.448;2024-02-14T04:19:29;42.00;;;3.73;;
8474;SDS011;4274;52.012;8.448;2024-02-14T04:21:54;39.20;;;3.30;;
8474;SDS011;4274;52.012;8.448;2024-02-14T04:24:20;40.93;;;3.77;;
8474;SDS011;4274;52.012;8.448;2024-02-14T04:26:45;41.47;;;3.83;;
8474;SDS011;4274;52.012;8.448;2024-02-14T04:29:13;39.70;;;3.60;;
8474;SDS011;4274;52.012;8.448;2024-02-14T04:31:38;41.07;;;4.07;;
8474;SDS011;4274;52.012;8.448;2024-02-14T04:34:04;42.33;;;4.70;;
8474;SDS011;4274;52.012;8.448;2024-02-14T04:36:32;40.67;;;4.20;;
8474;SDS011;4274;52.012;8.448;2024-02-14T04:39:00;40.57;;;4.27;;
8474;SDS011;4274;52.012;8.448;2024-02-14T04:41:26;41.77;;;4.50;;
8474;SDS011;4274;52.012;8.448;2024-02-14T04:43:52;40.70;;;4.27;;
8474;SDS011;4274;52.012;8.448;2024-02-14T04:46:17;42.10;;;4.47;;
8474;SDS011;4274;52.012;8.448;2024-02-14T04:48:43;40.73;;;4.10;;
8474;SDS011;4274;52.012;8.448;2024-02-14T04:51:09;39.93;;;4.33;;
8474;SDS011;4274;52.012;8.448;2024-02-14T04:53:34;42.03;;;4.57;;
8474;SDS011;4274;52.012;8.448;2024-02-14T04:56:00;40.33;;;3.93;;
8474;SDS011;4274;52.012;8.448;2024-02-14T04:58:26;41.10;;;4.53;;
8474;SDS011;4274;52.012;8.448;2024-02-14T05:00:52;42.10;;;4.67;;
8474;SDS011;4274;52.012;8.448;2024-02-14T05:03:19;40.27;;;4.73;;
8474;SDS011;4274;52.012;8.448;2024-02-14T05:05:46;40.70;;;4.43;;
8474;SDS011;4274;52.012;8.448;2024-02-14T05:08:11;41.70;;;4.70;;
8474;SDS011;4274;52.012;8.448;2024-02-14T05:10:37;42.27;;;4.73;;
8474;SDS011;4274;52.012;8.448;2024-02-14T05:13:02;44.10;;;4.47;;
8474;SDS011;4274;52.012;8.448;2024-02-14T05:15:28;42.47;;;5.10;;
8474;SDS011;4274;52.012;8.448;2024-02-14T05:17:54;41.67;;;5.27;;
8474;SDS011;4274;52.012;8.448;2024-02-14T05:20:21;41.87;;;4.80;;
8474;SDS011;4274;52.012;8.448;2024-02-14T05:22:46;43.97;;;5.30;;
8474;SDS011;4274;52.012;8.448;2024-02-14T05:25:12;43.17;;;5.67;;
8474;SDS011;4274;52.012;8.448;2024-02-14T05:27:38;42.03;;;4.93;;
8474;SDS011;4274;52.012;8.448;2024-02-14T05:30:04;46.67;;;5.37;;
8474;SDS011;4274;52.012;8.448;2024-02-14T05:32:33;41.97;;;5.17;;
8474;SDS011;4274;52.012;8.448;2024-02-14T05:34:59;41.67;;;5.40;;
8474;SDS011;4274;52.012;8.448;2024-02-14T05:37:24;42.77;;;6.10;;
8474;SDS011;4274;52.012;8.448;2024-02-14T05:39:52;43.90;;;5.53;;
8474;SDS011;4274;52.012;8.448;2024-02-14T05:42:18;45.40;;;5.67;;
8474;SDS011;4274;52.012;8.448;2024-02-14T05:44:44;41.70;;;5.70;;
8474;SDS011;4274;52.012;8.448;2024-02-14T05:47:09;46.33;;;6.07;;
8474;SDS011;4274;52.012;8.448;2024-02-14T05:49:38;41.10;;;5.53;;
8474;SDS011;4274;52.012;8.448;2024-02-14T05:52:04;42.60;;;6.00;;
8474;SDS011;4274;52.012;8.448;2024-02-14T05:54:30;42.30;;;5.33;;
8474;SDS011;4274;52.012;8.448;2024-02-14T05:56:56;43.10;;;6.40;;
8474;SDS011;4274;52.012;8.448;2024-02-14T05:59:22;43.87;;;6.73;;
8474;SDS011;4274;52.012;8.448;2024-02-14T06:01:48;43.73;;;5.70;;
8474;SDS011;4274;52.012;8.448;2024-02-14T06:04:14;42.00;;;5.90;;
8474;SDS011;4274;52.012;8.448;2024-02-14T06:06:39;42.70;;;6.70;;
8474;SDS011;4274;52.012;8.448;2024-02-14T06:09:05;42.67;;;6.73;;
8474;SDS011;4274;52.012;8.448;2024-02-14T06:11:35;43.10;;;6.60;;
8474;SDS011;4274;52.012;8.448;2024-02-14T06:14:01;46.70;;;6.50;;
8474;SDS011;4274;52.012;8.448;2024-02-14T06:16:27;43.90;;;6.67;;
8474;SDS011;4274;52.012;8.448;2024-02-14T06:18:53;45.20;;;6.10;;
8474;SDS011;4274;52.012;8.448;2024-02-14T06:21:18;43.33;;;5.90;;
8474;SDS011;4274;52.012;8.448;2024-02-14T06:23:44;42.47;;;6.73;;
8474;SDS011;4274;52.012;8.448;2024-02-14T06:26:11;43.27;;;6.63;;
8474;SDS011;4274;52.012;8.448;2024-02-14T06:28:37;43.47;;;7.10;;
8474;SDS011;4274;52.012;8.448;2024-02-14T06:31:03;43.27;;;6.90;;
8474;SDS011;4274;52.012;8.448;2024-02-14T06:33:28;44.90;;;7.00;;
8474;SDS011;4274;52.012;8.448;2024-02-14T06:35:54;44.07;;;7.30;;
8474;SDS011;4274;52.012;8.448;2024-02-14T06:38:19;44.37;;;6.93;;
8474;SDS011;4274;52.012;8.448;2024-02-14T06:40:45;48.83;;;7.70;;
8474;SDS011;4274;52.012;8.448;2024-02-14T06:43:11;45.27;;;7.90;;
8474;SDS011;4274;52.012;8.448;2024-02-14T06:45:37;45.40;;;8.10;;
8474;SDS011;4274;52.012;8.448;2024-02-14T06:48:03;46.27;;;9.23;;
8474;SDS011;4274;52.012;8.448;2024-02-14T06:50:29;47.30;;;9.47;;
8474;SDS011;4274;52.012;8.448;2024-02-14T06:52:56;47.33;;;9.30;;
8474;SDS011;4274;52.012;8.448;2024-02-14T06:55:25;48.37;;;10.23;;
8474;SDS011;4274;52.012;8.448;2024-02-14T06:57:51;48.60;;;8.90;;
8474;SDS011;4274;52.012;8.448;2024-02-14T07:00:17;49.70;;;11.30;;
8474;SDS011;4274;52.012;8.448;2024-02-14T07:02:43;50.30;;;10.60;;
8474;SDS011;4274;52.012;8.448;2024-02-14T07:05:12;50.70;;;11.37;;
8474;SDS011;4274;52.012;8.448;2024-02-14T07:07:39;50.40;;;10.53;;
8474;SDS011;4274;52.012;8.448;2024-02-14T07:10:05;49.00;;;11.10;;
8474;SDS011;4274;52.012;8.448;2024-02-14T07:12:31;50.37;;;12.03;;
8474;SDS011;4274;52.012;8.448;2024-02-14T07:14:57;53.20;;;13.27;;
8474;SDS011;4274;52.012;8.448;2024-02-14T07:17:23;52.33;;;11.73;;
8474;SDS011;4274;52.012;8.448;2024-02-14T07:19:48;55.13;;;12.00;;
8474;SDS011;4274;52.012;8.448;2024-02-14T07:22:15;54.10;;;12.30;;
8474;SDS011;4274;52.012;8.448;2024-02-14T07:24:41;51.80;;;10.70;;
8474;SDS011;4274;52.012;8.448;2024-02-14T07:27:11;56.20;;;10.03;;
8474;SDS011;4274;52.012;8.448;2024-02-14T07:29:37;49.53;;;11.00;;
8474;SDS011;4274;52.012;8.448;2024-02-14T07:32:03;51.57;;;12.30;;
8474;SDS011;4274;52.012;8.448;2024-02-14T07:34:29;50.90;;;10.93;;
8474;SDS011;4274;52.012;8.448;2024-02-14T07:36:54;50.93;;;11.53;;
8474;SDS011;4274;52.012;8.448;2024-02-14T07:39:20;51.13;;;12.50;;
8474;SDS011;4274;52.012;8.448;2024-02-14T07:41:45;51.53;;;11.17;;
8474;SDS011;4274;52.012;8.448;2024-02-14T07:44:11;52.33;;;11.70;;
8474;SDS011;4274;52.012;8.448;2024-02-14T07:46:37;50.97;;;12.70;;
8474;SDS011;4274;52.012;8.448;2024-02-14T07:49:03;52.17;;;12.60;;
8474;SDS011;4274;52.012;8.448;2024-02-14T07:51:30;52.07;;;12.60;;
8474;SDS011;4274;52.012;8.448;2024-02-14T07:54:01;53.27;;;12.60;;
8474;SDS011;4274;52.012;8.448;2024-02-14T07:56:30;52.23;;;12.43;;
8474;SDS011;4274;52.012;8.448;2024-02-14T07:58:56;52.53;;;12.57;;
8474;SDS011;4274;52.012;8.448;2024-02-14T08:01:22;51.97;;;11.57;;
8474;SDS011;4274;52.012;8.448;2024-02-14T08:03:48;54.77;;;13.10;;
8474;SDS011;4274;52.012;8.448;2024-02-14T08:06:14;52.90;;;12.60;;
8474;SDS011;4274;52.012;8.448;2024-02-14T08:08:39;52.00;;;11.93;;
8474;SDS011;4274;52.012;8.448;2024-02-14T08:11:05;51.17;;;12.03;;
8474;SDS011;4274;52.012;8.448;2024-02-14T08:13:31;49.00;;;11.10;;
8474;SDS011;4274;52.012;8.448;2024-02-14T08:15:57;53.03;;;12.07;;
8474;SDS011;4274;52.012;8.448;2024-02-14T08:18:23;54.20;;;11.47;;
8474;SDS011;4274;52.012;8.448;2024-02-14T08:20:49;50.07;;;12.30;;
8474;SDS011;4274;52.012;8.448;2024-02-14T08:23:15;51.20;;;11.83;;
8474;SDS011;4274;52.012;8.448;2024-02-14T08:25:40;49.27;;;11.50;;
8474;SDS011;4274;52.012;8.448;2024-02-14T08:28:06;48.90;;;11.10;;
8474;SDS011;4274;52.012;8.448;2024-02-14T08:30:32;58.13;;;11.70;;
8474;SDS011;4274;52.012;8.448;2024-02-14T08:32:58;48.70;;;11.13;;
8474;SDS011;4274;52.012;8.448;2024-02-14T08:35:24;53.60;;;12.30;;
8474;SDS011;4274;52.012;8.448;2024-02-14T08:37:49;51.83;;;12.90;;
8474;SDS011;4274;52.012;8.448;2024-02-14T08:40:15;51.03;;;11.83;;
8474;SDS011;4274;52.012;8.448;2024-02-14T08:42:40;54.03;;;12.33;;
8474;SDS011;4274;52.012;8.448;2024-02-14T08:45:06;51.70;;;12.20;;
8474;SDS011;4274;52.012;8.448;2024-02-14T08:47:33;49.80;;;10.13;;
8474;SDS011;4274;52.012;8.448;2024-02-14T08:49:59;49.77;;;10.40;;
8474;SDS011;4274;52.012;8.448;2024-02-14T08:52:24;51.93;;;10.60;;
8474;SDS011;4274;52.012;8.448;2024-02-14T08:54:50;49.90;;;11.10;;
8474;SDS011;4274;52.012;8.448;2024-02-14T08:57:16;54.90;;;11.67;;
8474;SDS011;4274;52.012;8.448;2024-02-14T08:59:43;53.63;;;10.90;;
8474;SDS011;4274;52.012;8.448;2024-02-14T09:02:12;49.17;;;10.87;;
8474;SDS011;4274;52.012;8.448;2024-02-14T09:04:38;48.53;;;11.20;;
8474;SDS011;4274;52.012;8.448;2024-02-14T09:07:04;53.07;;;11.13;;
8474;SDS011;4274;52.012;8.448;2024-02-14T09:09:29;51.70;;;10.03;;
8474;SDS011;4274;52.012;8.448;2024-02-14T09:11:56;50.13;;;9.87;;
8474;SDS011;4274;52.012;8.448;2024-02-14T09:14:21;49.77;;;10.63;;
8474;SDS011;4274;52.012;8.448;2024-02-14T09:16:48;53.50;;;9.47;;
8474;SDS011;4274;52.012;8.448;2024-02-14T09:19:13;50.50;;;10.83;;
8474;SDS011;4274;52.012;8.448;2024-02-14T09:21:39;47.40;;;9.93;;
8474;SDS011;4274;52.012;8.448;2024-02-14T09:24:04;52.33;;;8.77;;
8474;SDS011;4274;52.012;8.448;2024-02-14T09:26:31;48.50;;;9.53;;
8474;SDS011;4274;52.012;8.448;2024-02-14T09:28:57;49.70;;;10.00;;
8474;SDS011;4274;52.012;8.448;2024-02-14T09:31:22;47.07;;;10.10;;
8474;SDS011;4274;52.012;8.448;2024-02-14T09:33:48;49.30;;;10.97;;
8474;SDS011;4274;52.012;8.448;2024-02-14T09:36:14;52.30;;;11.47;;
8474;SDS011;4274;52.012;8.448;2024-02-14T09:38:40;48.10;;;9.50;;
8474;SDS011;4274;52.012;8.448;2024-02-14T09:41:25;51.50;;;10.27;;
8474;SDS011;4274;52.012;8.448;2024-02-14T09:43:58;50.60;;;10.87;;
8474;SDS011;4274;52.012;8.448;2024-02-14T09:46:24;50.67;;;10.47;;
8474;SDS011;4274;52.012;8.448;2024-02-14T09:48:51;50.97;;;10.53;;
8474;SDS011;4274;52.012;8.448;2024-02-14T09:51:18;50.53;;;10.93;;
8474;SDS011;4274;52.012;8.448;2024-02-14T09:53:44;54.10;;;11.90;;
8474;SDS011;4274;52.012;8.448;2024-02-14T09:56:10;51.00;;;11.77;;
8474;SDS011;4274;52.012;8.448;2024-02-14T09:58:37;53.27;;;12.50;;
8474;SDS011;4274;52.012;8.448;2024-02-14T10:01:03;54.33;;;13.30;;
8474;SDS011;4274;52.012;8.448;2024-02-14T10:03:29;51.30;;;12.83;;
8474;SDS011;4274;52.012;8.448;2024-02-14T10:05:55;55.70;;;13.03;;
8474;SDS011;4274;52.012;8.448;2024-02-14T10:08:21;54.43;;;13.50;;
8474;SDS011;4274;52.012;8.448;2024-02-14T10:10:47;55.90;;;13.77;;
8474;SDS011;4274;52.012;8.448;2024-02-14T10:13:15;54.90;;;14.20;;
8474;SDS011;4274;52.012;8.448;2024-02-14T10:15:41;56.33;;;13.97;;
8474;SDS011;4274;52.012;8.448;2024-02-14T10:18:06;56.37;;;14.13;;
8474;SDS011;4274;52.012;8.448;2024-02-14T10:20:34;56.00;;;14.23;;
8474;SDS011;4274;52.012;8.448;2024-02-14T10:23:06;57.33;;;14.73;;
8474;SDS011;4274;52.012;8.448;2024-02-14T10:25:36;54.90;;;14.80;;
8474;SDS011;4274;52.012;8.448;2024-02-14T10:28:06;57.13;;;15.70;;
8474;SDS011;4274;52.012;8.448;2024-02-14T10:30:33;58.53;;;15.67;;
8474;SDS011;4274;52.012;8.448;2024-02-14T10:33:06;59.80;;;15.00;;
8474;SDS011;4274;52.012;8.448;2024-02-14T10:35:32;55.27;;;14.87;;
8474;SDS011;4274;52.012;8.448;2024-02-14T10:37:59;53.10;;;14.50;;
8474;SDS011;4274;52.012;8.448;2024-02-14T10:40:27;54.33;;;13.80;;
8474;SDS011;4274;52.012;8.448;2024-02-14T10:42:54;57.57;;;15.67;;
8474;SDS011;4274;52.012;8.448;2024-02-14T10:45:20;54.63;;;15.07;;
8474;SDS011;4274;52.012;8.448;2024-02-14T10:47:45;54.70;;;14.63;;
8474;SDS011;4274;52.012;8.448;2024-02-14T10:50:14;55.97;;;14.17;;
8474;SDS011;4274;52.012;8.448;2024-02-14T10:52:41;56.40;;;14.40;;
8474;SDS011;4274;52.012;8.448;2024-02-14T10:55:07;53.53;;;13.90;;
8474;SDS011;4274;52.012;8.448;2024-02-14T10:57:34;58.67;;;13.73;;
8474;SDS011;4274;52.012;8.448;2024-02-14T11:00:03;55.17;;;13.13;;
8474;SDS011;4274;52.012;8.448;2024-02-14T11:02:33;53.70;;;12.90;;
8474;SDS011;4274;52.012;8.448;2024-02-14T11:04:59;56.23;;;14.17;;
8474;SDS011;4274;52.012;8.448;2024-02-14T11:07:27;52.37;;;12.93;;
8474;SDS011;4274;52.012;8.448;2024-02-14T11:10:06;53.97;;;14.23;;
8474;SDS011;4274;52.012;8.448;2024-02-14T11:12:33;53.73;;;13.90;;
8474;SDS011;4274;52.012;8.448;2024-02-14T11:17:36;53.40;;;13.60;;
8474;SDS011;4274;52.012;8.448;2024-02-14T11:20:13;52.70;;;13.33;;
8474;SDS011;4274;52.012;8.448;2024-02-14T11:22:39;55.83;;;12.80;;
8474;SDS011;4274;52.012;8.448;2024-02-14T11:25:14;53.03;;;13.00;;
8474;SDS011;4274;52.012;8.448;2024-02-14T11:27:46;54.87;;;12.93;;
8474;SDS011;4274;52.012;8.448;2024-02-14T11:30:12;56.40;;;13.33;;
8474;SDS011;4274;52.012;8.448;2024-02-14T11:32:40;53.10;;;13.77;;
8474;SDS011;4274;52.012;8.448;2024-02-14T11:35:07;50.93;;;12.77;;
8474;SDS011;4274;52.012;8.448;2024-02-14T11:37:37;49.53;;;11.90;;
8474;SDS011;4274;52.012;8.448;2024-02-14T11:40:03;50.17;;;11.83;;
8474;SDS011;4274;52.012;8.448;2024-02-14T11:42:29;49.10;;;10.87;;
8474;SDS011;4274;52.012;8.448;2024-02-14T11:44:56;53.73;;;11.63;;
8474;SDS011;4274;52.012;8.448;2024-02-14T11:47:22;47.27;;;10.77;;
8474;SDS011;4274;52.012;8.448;2024-02-14T11:49:48;53.03;;;11.43;;
8474;SDS011;4274;52.012;8.448;2024-02-14T11:52:13;53.67;;;11.93;;
8474;SDS011;4274;52.012;8.448;2024-02-14T11:54:39;47.30;;;10.30;;
8474;SDS011;4274;52.012;8.448;2024-02-14T11:57:10;48.00;;;10.37;;
8474;SDS011;4274;52.012;8.448;2024-02-14T11:59:36;45.93;;;9.47;;
8474;SDS011;4274;52.012;8.448;2024-02-14T12:02:01;48.37;;;9.00;;
8474;SDS011;4274;52.012;8.448;2024-02-14T12:04:28;45.43;;;8.20;;
8474;SDS011;4274;52.012;8.448;2024-02-14T12:06:53;47.03;;;7.93;;
8474;SDS011;4274;52.012;8.448;2024-02-14T12:09:20;43.93;;;7.40;;
8474;SDS011;4274;52.012;8.448;2024-02-14T12:11:46;46.53;;;8.90;;
8474;SDS011;4274;52.012;8.448;2024-02-14T12:14:12;44.03;;;8.07;;
8474;SDS011;4274;52.012;8.448;2024-02-14T12:16:39;46.77;;;8.13;;
8474;SDS011;4274;52.012;8.448;2024-02-14T12:19:08;44.97;;;7.77;;
8474;SDS011;4274;52.012;8.448;2024-02-14T12:21:44;44.87;;;8.20;;
8474;SDS011;4274;52.012;8.448;2024-02-14T12:24:10;45.17;;;8.33;;
8474;SDS011;4274;52.012;8.448;2024-02-14T12:26:37;44.47;;;8.33;;
8474;SDS011;4274;52.012;8.448;2024-02-14T12:29:03;45.30;;;8.50;;
8474;SDS011;4274;52.012;8.448;2024-02-14T12:31:30;43.20;;;7.30;;
8474;SDS011;4274;52.012;8.448;2024-02-14T12:33:58;44.10;;;7.50;;
8474;SDS011;4274;52.012;8.448;2024-02-14T12:36:26;45.57;;;8.30;;
8474;SDS011;4274;52.012;8.448;2024-02-14T12:38:53;44.87;;;8.07;;
8474;SDS011;4274;52.012;8.448;2024-02-14T12:41:22;43.40;;;8.10;;
8474;SDS011;4274;52.012;8.448;2024-02-14T12:43:57;46.47;;;7.67;;
8474;SDS011;4274;52.012;8.448;2024-02-14T12:46:24;43.50;;;7.70;;
8474;SDS011;4274;52.012;8.448;2024-02-14T12:48:49;43.77;;;7.63;;
8474;SDS011;4274;52.012;8.448;2024-02-14T12:51:15;44.10;;;7.80;;
8474;SDS011;4274;52.012;8.448;2024-02-14T12:53:41;44.57;;;8.30;;
8474;SDS011;4274;52.012;8.448;2024-02-14T12:56:07;43.07;;;7.37;;
8474;SDS011;4274;52.012;8.448;2024-02-14T12:58:33;46.70;;;9.00;;
8474;SDS011;4274;52.012;8.448;2024-02-14T13:00:58;47.00;;;8.67;;
8474;SDS011;4274;52.012;8.448;2024-02-14T13:03:25;45.20;;;8.47;;
8474;SDS011;4274;52.012;8.448;2024-02-14T13:05:50;45.30;;;7.87;;
8474;SDS011;4274;52.012;8.448;2024-02-14T13:08:19;44.60;;;7.87;;
8474;SDS011;4274;52.012;8.448;2024-02-14T13:10:45;45.20;;;7.47;;
8474;SDS011;4274;52.012;8.448;2024-02-14T13:13:10;44.80;;;8.20;;
8474;SDS011;4274;52.012;8.448;2024-02-14T13:15:37;48.87;;;8.17;;
8474;SDS011;4274;52.012;8.448;2024-02-14T13:18:02;45.50;;;8.50;;
8474;SDS011;4274;52.012;8.448;2024-02-14T13:20:28;46.00;;;8.07;;
8474;SDS011;4274;52.012;8.448;2024-02-14T13:22:54;45.87;;;8.50;;
8474;SDS011;4274;52.012;8.448;2024-02-14T13:25:20;46.90;;;8.03;;
8474;SDS011;4274;52.012;8.448;2024-02-14T13:27:46;46.40;;;8.83;;
8474;SDS011;4274;52.012;8.448;2024-02-14T13:30:12;47.90;;;9.10;;
8474;SDS011;4274;52.012;8.448;2024-02-14T13:32:38;46.63;;;8.43;;
8474;SDS011;4274;52.012;8.448;2024-02-14T13:35:03;50.60;;;8.80;;
8474;SDS011;4274;52.012;8.448;2024-02-14T13:37:30;49.70;;;8.60;;
8474;SDS011;4274;52.012;8.448;2024-02-14T13:39:57;47.80;;;8.90;;
8474;SDS011;4274;52.012;8.448;2024-02-14T13:42:23;47.80;;;8.33;;
8474;SDS011;4274;52.012;8.448;2024-02-14T13:44:48;44.47;;;7.40;;
8474;SDS011;4274;52.012;8.448;2024-02-14T13:47:17;46.20;;;8.87;;
8474;SDS011;4274;52.012;8.448;2024-02-14T13:49:43;46.03;;;8.10;;
8474;SDS011;4274;52.012;8.448;2024-02-14T13:52:09;46.30;;;8.17;;
8474;SDS011;4274;52.012;8.448;2024-02-14T13:54:35;48.33;;;6.60;;
8474;SDS011;4274;52.012;8.448;2024-02-14T13:57:00;43.57;;;7.70;;
8474;SDS011;4274;52.012;8.448;2024-02-14T13:59:27;46.97;;;8.20;;
8474;SDS011;4274;52.012;8.448;2024-02-14T14:01:53;43.67;;;7.47;;
8474;SDS011;4274;52.012;8.448;2024-02-14T14:04:18;46.30;;;7.50;;
8474;SDS011;4274;52.012;8.448;2024-02-14T14:06:45;45.77;;;7.13;;
8474;SDS011;4274;52.012;8.448;2024-02-14T14:09:12;44.07;;;7.40;;
8474;SDS011;4274;52.012;8.448;2024-02-14T14:11:38;42.90;;;6.70;;
8474;SDS011;4274;52.012;8.448;2024-02-14T14:14:04;48.93;;;8.10;;
8474;SDS011;4274;52.012;8.448;2024-02-14T14:16:30;44.77;;;7.67;;
8474;SDS011;4274;52.012;8.448;2024-02-14T14:18:58;44.27;;;7.00;;
8474;SDS011;4274;52.012;8.448;2024-02-14T14:21:23;45.77;;;7.30;;
8474;SDS011;4274;52.012;8.448;2024-02-14T14:23:49;45.30;;;6.90;;
8474;SDS011;4274;52.012;8.448;2024-02-14T14:26:15;43.57;;;7.23;;
8474;SDS011;4274;52.012;8.448;2024-02-14T14:28:40;42.90;;;6.67;;
8474;SDS011;4274;52.012;8.448;2024-02-14T14:31:07;45.37;;;6.77;;
8474;SDS011;4274;52.012;8.448;2024-02-14T14:33:36;48.40;;;6.87;;
8474;SDS011;4274;52.012;8.448;2024-02-14T14:36:01;46.23;;;6.03;;
8474;SDS011;4274;52.012;8.448;2024-02-14T14:38:28;46.00;;;6.87;;
8474;SDS011;4274;52.012;8.448;2024-02-14T14:40:54;51.50;;;7.17;;
8474;SDS011;4274;52.012;8.448;2024-02-14T14:43:20;45.00;;;6.40;;
8474;SDS011;4274;52.012;8.448;2024-02-14T14:45:46;43.10;;;6.33;;
8474;SDS011;4274;52.012;8.448;2024-02-14T14:48:14;46.33;;;5.87;;
8474;SDS011;4274;52.012;8.448;2024-02-14T14:50:40;43.30;;;5.20;;
8474;SDS011;4274;52.012;8.448;2024-02-14T14:53:06;43.30;;;5.60;;
8474;SDS011;4274;52.012;8.448;2024-02-14T14:55:50;43.80;;;5.97;;